CheckWX is a tool to help pilots better visualize weather data.  It is not intended as a substitute for an official pre-flight weather briefing.

08:11:59 UTC

KIGM METAR
Kingman Airport
Kingman, Arizona, USA
Current

18 mins ago

KIGM 220754Z AUTO 06005KT 10SM BKN003 BKN019 OVC026 M01/M02 A2968 RMK AO2 T10111017
Observed
Feb-22 @ 07:54 UTC
Wind
  • 060° at 5 KTS
Visibility
10 SM
Flight Rules
LIFR
Cloud Levels
  • Broken at 300' AGL
  • Broken at 1,900' AGL
  • Overcast at 2,600' AGL
Temperature
-1°C / 30°F
Dewpoint
-2°C / 28°F
Humidity
93%
Altimeter
29.68" Hg
Pressure
1005.12 hPa
Previous

28 mins ago

KIGM 220744Z AUTO 06004KT 10SM FEW005 BKN019 OVC050 M01/M02 A2968 RMK AO2 SNE08 P0000 T10111017
Observed
Feb-22 @ 07:44 UTC
Wind
  • 060° at 4 KTS
Visibility
10 SM
Flight Rules
MVFR
Cloud Levels
  • Few at 500' AGL
  • Broken at 1,900' AGL
  • Overcast at 5,000' AGL
Temperature
-1°C / 30°F
Dewpoint
-2°C / 28°F
Humidity
93%
Altimeter
29.68" Hg
Pressure
1005.12 hPa
Current Rain
0.01"
Previous

53 mins ago

KIGM 220719Z AUTO 11003KT 4SM BR BKN017 OVC025 M01/M02 A2967 RMK AO2 SNE08 P0000 T10111017
Observed
Feb-22 @ 07:19 UTC
Wind
  • 110° at 3 KTS
Visibility
4 SM
Flight Rules
MVFR
Conditions
Mist
Cloud Levels
  • Broken at 1,700' AGL
  • Overcast at 2,500' AGL
Temperature
-1°C / 30°F
Dewpoint
-2°C / 28°F
Humidity
93%
Altimeter
29.67" Hg
Pressure
1004.72 hPa
Current Rain
0.01"